Aérodrome :
LOGIN :

S'inscrire | Disclaimer

   EN    FR    IT 

 










Légende :    VFR   VFR Marginal   IFR   IFR Intensif   IFR Très Intensif
Visi : 
Plafond : 
>= 8 km
>= 3000ft
5 à 8 km
1000 à 3000 ft
1500m à 5 km
500 à 1000 ft
800 à 1500m
200 à 500 ft
< 800m
< 200 ft
Symboles :   Orages  Brouillard  Fortes neiges  Fortes précipitations  Vent > 20 kt
SIGMETs :   Divers  Orages  Givrage  Turbulence  Onde Orograph.  Cendres Volcan.






- Altitude de l'aérodrome : 776 ft
- Code IATA : RMS


ETAR - Ramstein Air Base

DERNIER METAR :
  • 200055Z AUTO 24007KT 9999 BKN034 BKN065 05/02 A2993 RMK AO2 SLP144 T00510018 $

METARs EXPIRÉS :
  • 192355Z AUTO 23003KT 9999 SCT029 SCT055 05/01 A2993 RMK AO2 SLP144 60000 T00470014 10085 20038 52014 $
  • 192241Z AUTO 27008KT 9999 FEW021 BKN028 BKN047 05/02 A2992 RMK AO2 RAB24E35DZB35E41 SLP140 $
  • 192255Z AUTO 29007KT 9999 FEW022 SCT028 BKN037 BKN047 06/02 A2992 RMK AO2 RAB24E35DZB35E41DZB44E52 SLP140 P0000 T00580019 400980012 $
  • 192224Z AUTO 25007KT 9999 -RA BKN031 06/01 A2991 RMK AO2 RAB24 SLP137 $
  • 192155Z AUTO 26007KT 9999 OVC033 06/02 A2990 RMK AO2 SLP133 T00630016 $
  • 192055Z AUTO 26008KT 9999 BKN038 BKN046 06/02 A2988 RMK AO2 SLP127 T00620017 52028 $

TAF AMD TAF ETAR
Valide du 19 à 21h jusqu'au 21 à 00h UTC


192105Z 1921/2024 30009KT 9999 BKN030 QNH2989INS
TEMPO 1921/2002 30010G15KT SCT030
BECMG 2002/2003 30010G15KT 9999 BKN015 QNH2991INS
TEMPO 2011/2015 9000 -SHRA
BECMG 2014/2015 32009KT 9999 BKN025 QNH2999INS TX09/2013Z TN03/2004Z



MET'MAP, la Météo Aéronautique d'un coup d'oeil ! - Copyright ORBIFLY Décembre 2007 - Disclaimer

ORBIFLY MET'MAP TEAM :

Programmation & Développement : Alexandra Zaïnal
Sur une idée originale de : Baudouin d'Aumeries
Soutien technique & logistique : Manuel Goepfert
Assistance : Marc-Olivier Méhu




SOURCES & CREDITS :

   NOAA